createdAt,value
2018-12-20T00:00:33.741Z,1001.05
2018-12-20T00:01:34.265Z,1001.01
2018-12-20T00:02:33.692Z,1001.01
2018-12-20T00:03:33.654Z,1001.01
2018-12-20T00:04:33.736Z,1001.03
2018-12-20T00:05:33.739Z,1001.00
2018-12-20T00:06:33.626Z,1000.98
2018-12-20T00:07:34.141Z,1001.01
2018-12-20T00:08:33.607Z,1001.01
2018-12-20T00:09:33.661Z,1001.03
2018-12-20T00:10:33.862Z,1001.01
2018-12-20T00:11:33.595Z,1001.04
2018-12-20T00:12:33.816Z,1001.03
2018-12-20T00:13:33.664Z,1001.04
2018-12-20T00:14:33.553Z,1000.94
2018-12-20T00:15:33.550Z,1000.95
2018-12-20T00:16:33.601Z,1000.88
2018-12-20T00:17:33.677Z,1000.88
2018-12-20T00:18:33.573Z,1000.88
2018-12-20T00:19:33.512Z,1000.98
2018-12-20T00:20:33.588Z,1000.93
2018-12-20T00:21:33.609Z,1000.92
2018-12-20T00:22:33.741Z,1000.96
2018-12-20T00:23:33.543Z,1000.97
2018-12-20T00:24:33.540Z,1000.95
2018-12-20T00:25:33.526Z,1000.96
2018-12-20T00:26:33.666Z,1000.93
2018-12-20T00:27:33.920Z,1000.92
2018-12-20T00:28:33.391Z,1000.88
2018-12-20T00:29:33.374Z,1000.91
2018-12-20T00:30:33.448Z,1000.90
2018-12-20T00:31:33.352Z,1000.87
2018-12-20T00:32:33.470Z,1000.88
2018-12-20T00:33:33.487Z,1000.91
2018-12-20T00:34:33.377Z,1000.89
2018-12-20T00:35:33.792Z,1000.85
2018-12-20T00:36:33.368Z,1000.88
2018-12-20T00:37:33.335Z,1000.90
2018-12-20T00:38:33.281Z,1000.92
2018-12-20T00:39:33.550Z,1000.90
2018-12-20T00:40:33.288Z,1000.94
2018-12-20T00:41:33.536Z,1000.92
2018-12-20T00:42:33.277Z,1000.88
2018-12-20T00:43:33.218Z,1000.87
2018-12-20T00:44:37.409Z,1000.89
2018-12-20T00:45:33.344Z,1000.88
2018-12-20T00:46:33.197Z,1000.93
2018-12-20T00:47:33.291Z,1000.92
2018-12-20T00:48:33.172Z,1000.91
2018-12-20T00:49:33.235Z,1000.91
2018-12-20T00:50:33.176Z,1000.93
2018-12-20T00:51:33.133Z,1000.93
2018-12-20T00:52:33.126Z,1000.91
2018-12-20T00:53:33.181Z,1000.89
2018-12-20T00:54:33.219Z,1000.91
2018-12-20T00:55:33.575Z,1000.87
2018-12-20T00:56:33.279Z,1000.89
2018-12-20T00:57:33.464Z,1000.89
2018-12-20T00:58:33.285Z,1000.88
2018-12-20T00:59:33.471Z,1000.89
2018-12-20T01:00:33.084Z,1000.88
2018-12-20T01:01:33.043Z,1000.87
2018-12-20T01:02:33.262Z,1000.90
2018-12-20T01:03:33.149Z,1000.86
2018-12-20T01:04:33.102Z,1000.88
2018-12-20T01:05:33.266Z,1000.84
2018-12-20T01:06:33.194Z,1000.80
2018-12-20T01:07:32.979Z,1000.78
2018-12-20T01:08:32.953Z,1000.80
2018-12-20T01:09:32.953Z,1000.76
2018-12-20T01:10:32.922Z,1000.78
2018-12-20T01:11:33.043Z,1000.75
2018-12-20T01:12:33.197Z,1000.75
2018-12-20T01:13:32.906Z,1000.77
2018-12-20T01:14:32.875Z,1000.75
2018-12-20T01:15:32.981Z,1000.77
2018-12-20T01:16:32.924Z,1000.79
2018-12-20T01:17:33.136Z,1000.84
2018-12-20T01:18:32.888Z,1000.75
2018-12-20T01:19:32.994Z,1000.80
2018-12-20T01:20:32.850Z,1000.85
2018-12-20T01:21:32.972Z,1000.78
2018-12-20T01:22:32.842Z,1000.77
2018-12-20T01:23:32.969Z,1000.79
2018-12-20T01:24:32.823Z,1000.85
2018-12-20T01:25:33.285Z,1000.85
2018-12-20T01:26:32.841Z,1000.86
2018-12-20T01:27:32.776Z,1000.85
2018-12-20T01:28:32.734Z,1000.81
2018-12-20T01:29:32.763Z,1000.83
2018-12-20T01:30:32.741Z,1000.82
2018-12-20T01:31:32.807Z,1000.79
2018-12-20T01:32:32.685Z,1000.80
2018-12-20T01:33:32.775Z,1000.79
2018-12-20T01:34:32.658Z,1000.84
2018-12-20T01:35:32.674Z,1000.78
2018-12-20T01:36:32.810Z,1000.87
2018-12-20T01:37:32.683Z,1000.81
2018-12-20T01:38:32.617Z,1000.80
2018-12-20T01:39:32.755Z,1000.84
2018-12-20T01:40:32.776Z,1000.82
2018-12-20T01:41:32.900Z,1000.83
2018-12-20T01:42:32.578Z,1000.84
2018-12-20T01:43:32.846Z,1000.85
2018-12-20T01:44:32.572Z,1000.88
2018-12-20T01:45:32.567Z,1000.96
2018-12-20T01:46:32.642Z,1000.90
2018-12-20T01:47:32.646Z,1000.92
2018-12-20T01:48:32.519Z,1000.92
2018-12-20T01:49:32.756Z,1000.90
2018-12-20T01:50:32.582Z,1000.95
2018-12-20T01:51:32.634Z,1000.90
2018-12-20T01:52:32.469Z,1000.92
2018-12-20T01:53:32.487Z,1000.96
2018-12-20T01:54:32.446Z,1000.91
2018-12-20T01:55:32.520Z,1000.87
2018-12-20T01:56:32.458Z,1000.91
2018-12-20T01:57:32.580Z,1000.90
2018-12-20T01:58:32.591Z,1000.93
2018-12-20T01:59:32.498Z,1000.94
2018-12-20T02:00:32.415Z,1000.95
2018-12-20T02:01:32.450Z,1000.92
2018-12-20T02:02:32.363Z,1000.93
2018-12-20T02:03:32.370Z,1000.96
2018-12-20T02:04:32.564Z,1000.89
2018-12-20T02:05:32.459Z,1000.90
2018-12-20T02:06:32.512Z,1000.91
2018-12-20T02:07:32.325Z,1000.93
2018-12-20T02:08:32.489Z,1000.94
2018-12-20T02:09:32.523Z,1000.92
2018-12-20T02:10:32.274Z,1000.84
2018-12-20T02:11:32.369Z,1000.94
2018-12-20T02:12:32.440Z,1000.93
2018-12-20T02:13:32.372Z,1000.90
2018-12-20T02:14:32.310Z,1000.81
2018-12-20T02:15:32.483Z,1000.81
2018-12-20T02:16:32.232Z,1000.81
2018-12-20T02:17:32.743Z,1000.79
2018-12-20T02:18:32.390Z,1000.79
2018-12-20T02:19:32.228Z,1000.79
2018-12-20T02:20:32.195Z,1000.77
2018-12-20T02:21:32.241Z,1000.79
2018-12-20T02:22:32.174Z,1000.80
2018-12-20T02:23:32.157Z,1000.75
2018-12-20T02:24:32.155Z,1000.70
2018-12-20T02:25:32.414Z,1000.73
2018-12-20T02:26:32.181Z,1000.73
2018-12-20T02:27:32.128Z,1000.71
2018-12-20T02:28:32.075Z,1000.66
2018-12-20T02:29:32.076Z,1000.67
2018-12-20T02:30:32.261Z,1000.68
2018-12-20T02:31:32.420Z,1000.67
2018-12-20T02:32:32.184Z,1000.62
2018-12-20T02:33:32.014Z,1000.64
2018-12-20T02:34:32.153Z,1000.61
2018-12-20T02:35:32.059Z,1000.59
2018-12-20T02:36:32.131Z,1000.63
2018-12-20T02:37:31.991Z,1000.60
2018-12-20T02:38:32.141Z,1000.60
2018-12-20T02:39:32.167Z,1000.61
2018-12-20T02:40:31.952Z,1000.59
2018-12-20T02:41:31.946Z,1000.61
2018-12-20T02:42:32.943Z,1000.63
2018-12-20T02:43:31.931Z,1000.63
2018-12-20T02:44:32.035Z,1000.60
2018-12-20T02:45:31.907Z,1000.65
2018-12-20T02:46:32.025Z,1000.63
2018-12-20T02:47:32.134Z,1000.62
2018-12-20T02:48:31.866Z,1000.65
2018-12-20T02:49:31.950Z,1000.63
2018-12-20T02:50:31.897Z,1000.64
2018-12-20T02:51:31.840Z,1000.60
2018-12-20T02:52:31.871Z,1000.59
2018-12-20T02:53:31.848Z,1000.62
2018-12-20T02:54:31.790Z,1000.59
2018-12-20T02:55:31.818Z,1000.59
2018-12-20T02:56:31.900Z,1000.60
2018-12-20T02:57:31.828Z,1000.59
2018-12-20T02:58:32.062Z,1000.58
2018-12-20T02:59:31.738Z,1000.62
2018-12-20T03:00:31.959Z,1000.56
2018-12-20T03:01:31.879Z,1000.60
2018-12-20T03:02:31.713Z,1000.61
2018-12-20T03:03:31.716Z,1000.61
2018-12-20T03:04:31.724Z,1000.59
2018-12-20T03:05:31.724Z,1000.56
2018-12-20T03:06:31.661Z,1000.57
2018-12-20T03:07:31.657Z,1000.56
2018-12-20T03:08:31.912Z,1000.51
2018-12-20T03:09:31.749Z,1000.52
2018-12-20T03:10:31.608Z,1000.52
2018-12-20T03:11:31.684Z,1000.51
2018-12-20T03:12:31.590Z,1000.50
2018-12-20T03:13:31.673Z,1000.49
2018-12-20T03:14:31.588Z,1000.49
2018-12-20T03:15:31.835Z,1000.51
2018-12-20T03:16:31.746Z,1000.51
2018-12-20T03:17:31.777Z,1000.50
2018-12-20T03:18:31.627Z,1000.53
2018-12-20T03:19:31.549Z,1000.49
2018-12-20T03:20:31.581Z,1000.49
2018-12-20T03:21:31.792Z,1000.49
2018-12-20T03:22:31.512Z,1000.49
2018-12-20T03:23:31.894Z,1000.43
2018-12-20T03:24:31.851Z,1000.45
2018-12-20T03:25:31.531Z,1000.44
2018-12-20T03:26:31.474Z,1000.42
2018-12-20T03:27:31.822Z,1000.46
2018-12-20T03:28:31.511Z,1000.43
2018-12-20T03:29:31.537Z,1000.39
2018-12-20T03:30:31.436Z,1000.38
2018-12-20T03:31:31.450Z,1000.37
2018-12-20T03:32:31.388Z,1000.38
2018-12-20T03:33:31.397Z,1000.43
2018-12-20T03:34:31.380Z,1000.42
2018-12-20T03:35:31.351Z,1000.38
2018-12-20T03:36:31.334Z,1000.38
2018-12-20T03:37:31.574Z,1000.37
2018-12-20T03:38:31.509Z,1000.37
2018-12-20T03:39:31.330Z,1000.36
2018-12-20T03:40:31.317Z,1000.39
2018-12-20T03:41:31.302Z,1000.38
2018-12-20T03:42:31.312Z,1000.35
2018-12-20T03:43:31.285Z,1000.34
2018-12-20T03:44:31.261Z,1000.36
2018-12-20T03:45:31.255Z,1000.34
2018-12-20T03:46:31.224Z,1000.39
2018-12-20T03:47:31.345Z,1000.35
2018-12-20T03:48:31.237Z,1000.38
2018-12-20T03:49:31.202Z,1000.37
2018-12-20T03:50:31.209Z,1000.36
2018-12-20T03:51:31.380Z,1000.39
2018-12-20T03:52:31.386Z,1000.40
2018-12-20T03:53:31.217Z,1000.37
2018-12-20T03:54:31.733Z,1000.37
2018-12-20T03:55:31.205Z,1000.42
2018-12-20T03:56:31.260Z,1000.38
2018-12-20T03:57:31.150Z,1000.37
2018-12-20T03:58:31.385Z,1000.41
2018-12-20T03:59:31.201Z,1000.40
2018-12-20T04:00:31.861Z,1000.42
2018-12-20T04:01:31.606Z,1000.43
2018-12-20T04:02:31.107Z,1000.40
2018-12-20T04:03:31.524Z,1000.48
2018-12-20T04:04:31.120Z,1000.46
2018-12-20T04:05:31.084Z,1000.42
2018-12-20T04:06:31.306Z,1000.44
2018-12-20T04:07:31.087Z,1000.43
2018-12-20T04:08:31.580Z,1000.43
2018-12-20T04:09:31.190Z,1000.46
2018-12-20T04:10:31.337Z,1000.46
2018-12-20T04:11:31.271Z,1000.44
2018-12-20T04:12:34.222Z,1000.48
2018-12-20T04:13:31.133Z,1000.45
2018-12-20T04:14:30.935Z,1000.47
2018-12-20T04:15:37.760Z,1000.41
2018-12-20T04:16:30.886Z,1000.43
2018-12-20T04:17:31.032Z,1000.49
2018-12-20T04:18:30.971Z,1000.49
2018-12-20T04:19:31.200Z,1000.48
2018-12-20T04:20:30.924Z,1000.48
2018-12-20T04:21:31.071Z,1000.46
2018-12-20T04:22:30.923Z,1000.43
2018-12-20T04:23:30.893Z,1000.43
2018-12-20T04:24:31.083Z,1000.40
2018-12-20T04:25:30.896Z,1000.40
2018-12-20T04:26:30.876Z,1000.37
2018-12-20T04:27:31.301Z,1000.38
2018-12-20T04:28:30.974Z,1000.37
2018-12-20T04:29:31.049Z,1000.37
2018-12-20T04:30:31.306Z,1000.38
2018-12-20T04:31:30.753Z,1000.37
2018-12-20T04:32:30.727Z,1000.34
2018-12-20T04:33:30.704Z,1000.39
2018-12-20T04:34:30.947Z,1000.45
2018-12-20T04:35:30.723Z,1000.42
2018-12-20T04:36:30.671Z,1000.45
2018-12-20T04:37:30.795Z,1000.42
2018-12-20T04:38:30.684Z,1000.49
2018-12-20T04:39:30.848Z,1000.52
2018-12-20T04:40:30.646Z,1000.51
2018-12-20T04:41:30.776Z,1000.50
2018-12-20T04:42:30.661Z,1000.51
2018-12-20T04:43:30.637Z,1000.55
2018-12-20T04:44:30.673Z,1000.54
2018-12-20T04:45:30.609Z,1000.50
2018-12-20T04:46:30.581Z,1000.52
2018-12-20T04:47:30.573Z,1000.50
2018-12-20T04:48:30.806Z,1000.53
2018-12-20T04:49:30.850Z,1000.51
2018-12-20T04:50:30.787Z,1000.49
2018-12-20T04:51:30.622Z,1000.54
2018-12-20T04:52:30.648Z,1000.57
2018-12-20T04:53:30.724Z,1000.56
2018-12-20T04:54:30.996Z,1000.58
2018-12-20T04:55:30.517Z,1000.53
2018-12-20T04:56:30.546Z,1000.55
2018-12-20T04:57:30.505Z,1000.56
2018-12-20T04:58:30.572Z,1000.57
2018-12-20T04:59:30.613Z,1000.54
2018-12-20T05:00:30.680Z,1000.55
2018-12-20T05:01:30.449Z,1000.60
2018-12-20T05:02:30.399Z,1000.59
2018-12-20T05:03:30.387Z,1000.60
2018-12-20T05:04:30.577Z,1000.62
2018-12-20T05:05:30.634Z,1000.62
2018-12-20T05:06:30.611Z,1000.65
2018-12-20T05:07:30.364Z,1000.63
2018-12-20T05:08:30.541Z,1000.60
2018-12-20T05:09:30.604Z,1000.59
2018-12-20T05:10:30.370Z,1000.62
2018-12-20T05:11:30.421Z,1000.63
2018-12-20T05:12:30.338Z,1000.62
2018-12-20T05:13:30.337Z,1000.71
2018-12-20T05:14:30.292Z,1000.66
2018-12-20T05:15:30.283Z,1000.70
2018-12-20T05:16:30.511Z,1000.69
2018-12-20T05:17:30.380Z,1000.73
2018-12-20T05:18:30.529Z,1000.74
2018-12-20T05:19:30.607Z,1000.73
2018-12-20T05:20:30.323Z,1000.76
2018-12-20T05:21:30.314Z,1000.72
2018-12-20T05:22:30.212Z,1000.75
2018-12-20T05:23:30.405Z,1000.75
2018-12-20T05:24:30.465Z,1000.74
2018-12-20T05:25:30.200Z,1000.71
2018-12-20T05:26:30.221Z,1000.72
2018-12-20T05:27:30.161Z,1000.71
2018-12-20T05:28:30.299Z,1000.72
2018-12-20T05:29:30.163Z,1000.67
2018-12-20T05:30:30.119Z,1000.69
2018-12-20T05:31:30.079Z,1000.68
2018-12-20T05:32:30.405Z,1000.70
2018-12-20T05:33:30.261Z,1000.68
2018-12-20T05:34:30.226Z,1000.74
2018-12-20T05:35:30.332Z,1000.69
2018-12-20T05:36:30.158Z,1000.71
2018-12-20T05:37:30.023Z,1000.66
2018-12-20T05:38:30.073Z,1000.68
2018-12-20T05:39:29.991Z,1000.70
2018-12-20T05:40:29.991Z,1000.69
2018-12-20T05:41:30.023Z,1000.68
2018-12-20T05:42:30.332Z,1000.67
2018-12-20T05:43:30.215Z,1000.69
2018-12-20T05:44:29.954Z,1000.66
2018-12-20T05:45:30.152Z,1000.71
2018-12-20T05:46:29.991Z,1000.66
2018-12-20T05:47:29.914Z,1000.68
2018-12-20T05:48:29.971Z,1000.67
2018-12-20T05:49:29.880Z,1000.73
2018-12-20T05:50:29.878Z,1000.68
2018-12-20T05:51:29.890Z,1000.71
2018-12-20T05:52:29.850Z,1000.73
2018-12-20T05:53:30.383Z,1000.73
2018-12-20T05:54:29.864Z,1000.73
2018-12-20T05:55:29.985Z,1000.76
2018-12-20T05:56:29.810Z,1000.72
2018-12-20T05:57:29.905Z,1000.76
2018-12-20T05:58:30.023Z,1000.80
2018-12-20T05:59:29.875Z,1000.74
2018-12-20T06:00:29.788Z,1000.75
2018-12-20T06:01:30.019Z,1000.77
2018-12-20T06:02:29.935Z,1000.75
2018-12-20T06:03:29.746Z,1000.77
2018-12-20T06:04:29.922Z,1000.76
2018-12-20T06:05:29.791Z,1000.78
2018-12-20T06:06:29.739Z,1000.75
2018-12-20T06:07:29.688Z,1000.78
2018-12-20T06:08:29.673Z,1000.74
2018-12-20T06:09:29.746Z,1000.77
2018-12-20T06:10:30.088Z,1000.78
2018-12-20T06:11:29.647Z,1000.83
2018-12-20T06:12:29.685Z,1000.87
2018-12-20T06:13:29.653Z,1000.83
2018-12-20T06:14:29.795Z,1000.85
2018-12-20T06:15:29.626Z,1000.81
2018-12-20T06:16:29.645Z,1000.81
2018-12-20T06:17:29.617Z,1000.82
2018-12-20T06:18:29.601Z,1000.81
2018-12-20T06:19:29.777Z,1000.82
2018-12-20T06:20:29.874Z,1000.85
2018-12-20T06:21:29.610Z,1000.91
2018-12-20T06:22:29.565Z,1000.93
2018-12-20T06:23:29.548Z,1000.90
2018-12-20T06:24:29.542Z,1000.87
2018-12-20T06:25:29.778Z,1000.95
2018-12-20T06:26:29.530Z,1001.00
2018-12-20T06:27:29.526Z,1000.99
2018-12-20T06:28:29.513Z,1001.01
2018-12-20T06:29:29.493Z,1000.97
2018-12-20T06:30:29.567Z,1000.90
2018-12-20T06:31:29.486Z,1000.98
2018-12-20T06:32:29.515Z,1001.04
2018-12-20T06:33:33.110Z,1001.02
2018-12-20T06:34:32.017Z,1001.07
2018-12-20T06:35:29.519Z,1000.97
2018-12-20T06:36:29.453Z,1000.99
2018-12-20T06:37:29.439Z,1000.99
2018-12-20T06:38:29.555Z,1001.05
2018-12-20T06:39:29.587Z,1000.99
2018-12-20T06:40:29.494Z,1001.04
2018-12-20T06:41:30.935Z,1001.00
2018-12-20T06:42:29.473Z,1001.04
2018-12-20T06:43:29.359Z,1001.01
2018-12-20T06:44:29.448Z,1001.03
2018-12-20T06:45:29.450Z,1001.03
2018-12-20T06:46:31.141Z,1000.97
2018-12-20T06:47:30.899Z,1001.07
2018-12-20T06:48:30.917Z,1001.06
2018-12-20T06:49:31.248Z,1001.10
2018-12-20T06:50:29.385Z,1001.10
2018-12-20T06:51:31.243Z,1001.14
2018-12-20T06:52:31.188Z,1001.15
2018-12-20T06:53:32.495Z,1001.15
2018-12-20T06:54:32.233Z,1001.13
2018-12-20T06:55:37.147Z,1001.16
2018-12-20T06:56:31.375Z,1001.17
2018-12-20T06:57:31.299Z,1001.24
2018-12-20T06:58:30.037Z,1001.21
2018-12-20T06:59:31.012Z,1001.19
2018-12-20T07:00:31.140Z,1001.20
2018-12-20T07:01:32.840Z,1001.20
2018-12-20T07:02:30.603Z,1001.26
2018-12-20T07:03:31.005Z,1001.23
2018-12-20T07:04:30.693Z,1001.20
2018-12-20T07:05:29.249Z,1001.29
2018-12-20T07:06:29.231Z,1001.18
2018-12-20T07:07:29.159Z,1001.23
2018-12-20T07:08:31.892Z,1001.26
2018-12-20T07:09:29.068Z,1001.30
2018-12-20T07:10:29.092Z,1001.30
2018-12-20T07:11:29.048Z,1001.32
2018-12-20T07:12:29.120Z,1001.29
2018-12-20T07:13:29.028Z,1001.30
2018-12-20T07:14:29.020Z,1001.31
2018-12-20T07:15:29.008Z,1001.32
2018-12-20T07:16:29.367Z,1001.36
2018-12-20T07:17:28.980Z,1001.35
2018-12-20T07:18:28.992Z,1001.32
2018-12-20T07:19:29.066Z,1001.35
2018-12-20T07:20:28.990Z,1001.34
2018-12-20T07:21:28.997Z,1001.35
2018-12-20T07:22:29.179Z,1001.38
2018-12-20T07:23:29.181Z,1001.37
2018-12-20T07:24:28.911Z,1001.39
2018-12-20T07:25:28.962Z,1001.36
2018-12-20T07:26:28.895Z,1001.37
2018-12-20T07:27:28.896Z,1001.33
2018-12-20T07:28:29.197Z,1001.39
2018-12-20T07:29:28.863Z,1001.33
2018-12-20T07:30:28.877Z,1001.37
2018-12-20T07:31:28.838Z,1001.36
2018-12-20T07:32:28.826Z,1001.32
2018-12-20T07:33:28.918Z,1001.37
2018-12-20T07:34:28.787Z,1001.34
2018-12-20T07:35:28.829Z,1001.35
2018-12-20T07:36:29.060Z,1001.41
2018-12-20T07:37:28.752Z,1001.41
2018-12-20T07:38:28.870Z,1001.38
2018-12-20T07:39:28.763Z,1001.33
2018-12-20T07:40:28.750Z,1001.36
2018-12-20T07:41:28.748Z,1001.41
2018-12-20T07:42:28.730Z,1001.40
2018-12-20T07:43:29.620Z,1001.41
2018-12-20T07:44:28.688Z,1001.39
2018-12-20T07:45:28.681Z,1001.46
2018-12-20T07:46:28.670Z,1001.49
2018-12-20T07:47:28.722Z,1001.45
2018-12-20T07:48:32.253Z,1001.45
2018-12-20T07:49:28.687Z,1001.46
2018-12-20T07:50:29.856Z,1001.51
2018-12-20T07:51:28.848Z,1001.45
2018-12-20T07:52:28.616Z,1001.49
2018-12-20T07:53:28.596Z,1001.49
2018-12-20T07:54:28.806Z,1001.49
2018-12-20T07:55:28.585Z,1001.53
2018-12-20T07:56:28.578Z,1001.52
2018-12-20T07:57:28.591Z,1001.50
2018-12-20T07:58:28.570Z,1001.48
2018-12-20T07:59:28.610Z,1001.53
2018-12-20T08:00:28.502Z,1001.47
2018-12-20T08:01:28.526Z,1001.52
2018-12-20T08:02:28.494Z,1001.54
2018-12-20T08:03:28.474Z,1001.58
2018-12-20T08:04:28.560Z,1001.58
2018-12-20T08:05:28.470Z,1001.63
2018-12-20T08:06:28.429Z,1001.63
2018-12-20T08:07:28.425Z,1001.68
2018-12-20T08:08:28.924Z,1001.64
2018-12-20T08:09:28.483Z,1001.63
2018-12-20T08:10:28.445Z,1001.62
2018-12-20T08:11:29.228Z,1001.65
2018-12-20T08:12:28.475Z,1001.66
2018-12-20T08:13:28.838Z,1001.67
2018-12-20T08:14:28.405Z,1001.69
2018-12-20T08:15:28.340Z,1001.66
2018-12-20T08:16:28.324Z,1001.69
2018-12-20T08:17:28.312Z,1001.70
2018-12-20T08:18:28.460Z,1001.69
2018-12-20T08:19:36.008Z,1001.71
2018-12-20T08:20:28.303Z,1001.71
2018-12-20T08:21:28.299Z,1001.71
2018-12-20T08:22:28.288Z,1001.72
2018-12-20T08:23:28.276Z,1001.71
2018-12-20T08:24:28.345Z,1001.71
2018-12-20T08:25:28.250Z,1001.72
2018-12-20T08:26:28.217Z,1001.72
2018-12-20T08:27:28.209Z,1001.77
2018-12-20T08:28:28.289Z,1001.75
2018-12-20T08:29:28.284Z,1001.80
2018-12-20T08:30:28.195Z,1001.78
2018-12-20T08:31:28.228Z,1001.81
2018-12-20T08:32:28.406Z,1001.76
2018-12-20T08:33:28.132Z,1001.80
2018-12-20T08:34:31.830Z,1001.79
2018-12-20T08:35:28.975Z,1001.75
2018-12-20T08:36:28.139Z,1001.80
2018-12-20T08:37:28.150Z,1001.72
2018-12-20T08:38:28.088Z,1001.70
2018-12-20T08:39:28.079Z,1001.68
2018-12-20T08:40:30.851Z,1001.73
2018-12-20T08:41:28.682Z,1001.73
2018-12-20T08:42:28.035Z,1001.69
2018-12-20T08:43:28.055Z,1001.69
2018-12-20T08:44:27.980Z,1001.70
2018-12-20T08:45:28.249Z,1001.71
2018-12-20T08:46:28.116Z,1001.73
2018-12-20T08:47:30.462Z,1001.75
2018-12-20T08:48:29.024Z,1001.74
2018-12-20T08:49:27.945Z,1001.77
2018-12-20T08:50:28.271Z,1001.73
2018-12-20T08:51:27.963Z,1001.70
2018-12-20T08:52:28.002Z,1001.77
2018-12-20T08:53:30.200Z,1001.80
2018-12-20T08:54:28.498Z,1001.75
2018-12-20T08:55:28.980Z,1001.76
2018-12-20T08:56:29.913Z,1001.78
2018-12-20T08:57:28.592Z,1001.75
2018-12-20T08:58:28.449Z,1001.80
2018-12-20T08:59:30.063Z,1001.93
2018-12-20T09:00:28.014Z,1001.89
2018-12-20T09:01:27.970Z,1001.87
2018-12-20T09:02:27.812Z,1001.95
2018-12-20T09:03:27.848Z,1001.98
2018-12-20T09:04:27.856Z,1002.01
2018-12-20T09:05:27.964Z,1001.98
2018-12-20T09:06:28.033Z,1001.95
2018-12-20T09:07:28.022Z,1001.98
2018-12-20T09:08:27.787Z,1001.98
2018-12-20T09:09:27.757Z,1002.01
2018-12-20T09:10:27.839Z,1002.05
2018-12-20T09:11:27.692Z,1002.03
2018-12-20T09:12:27.745Z,1002.10
2018-12-20T09:13:28.080Z,1002.08
2018-12-20T09:14:27.714Z,1002.04
2018-12-20T09:15:27.699Z,1002.08
2018-12-20T09:16:27.936Z,1002.09
2018-12-20T09:17:27.802Z,1002.11
2018-12-20T09:18:27.908Z,1002.14
2018-12-20T09:19:27.633Z,1002.15
2018-12-20T09:20:32.717Z,1002.11
2018-12-20T09:21:27.712Z,1002.07
2018-12-20T09:22:27.636Z,1002.06
2018-12-20T09:23:27.621Z,1002.02
2018-12-20T09:24:27.634Z,1002.06
2018-12-20T09:25:27.972Z,1002.09
2018-12-20T09:26:27.591Z,1002.06
2018-12-20T09:27:27.664Z,1002.10
2018-12-20T09:28:28.893Z,1002.13
2018-12-20T09:29:27.526Z,1002.16
2018-12-20T09:30:30.624Z,1002.18
2018-12-20T09:31:27.583Z,1002.17
2018-12-20T09:32:27.459Z,1002.17
2018-12-20T09:33:27.840Z,1002.17
2018-12-20T09:34:27.440Z,1002.17
2018-12-20T09:35:29.528Z,1002.16
2018-12-20T09:36:27.426Z,1002.19
2018-12-20T09:37:27.413Z,1002.15
2018-12-20T09:38:27.395Z,1002.17
2018-12-20T09:39:27.674Z,1002.18
2018-12-20T09:40:27.526Z,1002.20
2018-12-20T09:41:27.370Z,1002.21
2018-12-20T09:42:27.351Z,1002.21
2018-12-20T09:43:27.365Z,1002.21
2018-12-20T09:44:27.373Z,1002.25
2018-12-20T09:45:27.347Z,1002.20
2018-12-20T09:46:27.592Z,1002.21
2018-12-20T09:47:27.375Z,1002.19
2018-12-20T09:48:27.603Z,1002.20
2018-12-20T09:49:27.277Z,1002.22
2018-12-20T09:50:27.325Z,1002.20
2018-12-20T09:51:27.276Z,1002.23
2018-12-20T09:52:27.256Z,1002.22
2018-12-20T09:53:27.258Z,1002.19
2018-12-20T09:54:27.219Z,1002.18
2018-12-20T09:55:27.250Z,1002.22
2018-12-20T09:56:27.208Z,1002.23
2018-12-20T09:57:27.199Z,1002.26
2018-12-20T09:58:27.182Z,1002.24
2018-12-20T09:59:27.172Z,1002.22
2018-12-20T10:00:27.187Z,1002.21
2018-12-20T10:01:27.176Z,1002.17
2018-12-20T10:02:27.139Z,1002.24
2018-12-20T10:03:27.134Z,1002.17
2018-12-20T10:04:27.121Z,1002.17
2018-12-20T10:05:27.137Z,1002.20
2018-12-20T10:06:27.092Z,1002.20
2018-12-20T10:07:27.104Z,1002.16
2018-12-20T10:08:29.008Z,1002.17
2018-12-20T10:09:27.318Z,1002.14
2018-12-20T10:10:27.085Z,1002.11
2018-12-20T10:11:27.077Z,1002.14
2018-12-20T10:12:27.033Z,1002.14
2018-12-20T10:13:27.060Z,1002.11
2018-12-20T10:14:27.092Z,1002.14
2018-12-20T10:15:27.111Z,1002.11
2018-12-20T10:16:27.023Z,1002.10
2018-12-20T10:17:27.020Z,1002.10
2018-12-20T10:18:27.008Z,1002.14
2018-12-20T10:19:27.023Z,1002.14
2018-12-20T10:20:27.127Z,1002.12
2018-12-20T10:21:27.499Z,1002.11
2018-12-20T10:22:27.015Z,1002.08
2018-12-20T10:23:27.013Z,1002.05
2018-12-20T10:24:27.065Z,1002.12
2018-12-20T10:25:27.009Z,1002.07
2018-12-20T10:26:26.931Z,1002.13
2018-12-20T10:27:31.399Z,1002.10
2018-12-20T10:28:26.902Z,1002.12
2018-12-20T10:29:26.933Z,1002.09
2018-12-20T10:30:26.867Z,1002.10
2018-12-20T10:31:26.937Z,1002.11
2018-12-20T10:32:26.820Z,1002.09
2018-12-20T10:33:27.061Z,1002.09
2018-12-20T10:34:26.833Z,1002.13
2018-12-20T10:35:27.080Z,1002.07
2018-12-20T10:36:26.782Z,1002.09
2018-12-20T10:37:26.756Z,1002.08
2018-12-20T10:38:26.744Z,1002.08
2018-12-20T10:39:26.740Z,1002.03
2018-12-20T10:40:27.056Z,1001.97
2018-12-20T10:41:26.734Z,1001.98
2018-12-20T10:42:26.707Z,1002.01
2018-12-20T10:43:26.695Z,1001.94
2018-12-20T10:44:26.943Z,1002.00
2018-12-20T10:45:27.069Z,1002.00
2018-12-20T10:46:26.656Z,1001.99
2018-12-20T10:47:29.121Z,1001.98
2018-12-20T10:48:26.656Z,1001.94
2018-12-20T10:49:26.627Z,1001.94
2018-12-20T10:50:26.626Z,1001.93
2018-12-20T10:51:27.307Z,1001.90
2018-12-20T10:52:26.687Z,1001.90
2018-12-20T10:53:26.640Z,1001.85
2018-12-20T10:54:26.569Z,1001.87
2018-12-20T10:55:26.564Z,1001.84
2018-12-20T10:56:26.589Z,1001.85
2018-12-20T10:57:26.552Z,1001.89
2018-12-20T10:58:26.522Z,1001.91
2018-12-20T10:59:26.534Z,1001.92
2018-12-20T11:00:26.510Z,1001.91
2018-12-20T11:01:26.530Z,1001.86
2018-12-20T11:02:28.084Z,1001.93
2018-12-20T11:03:26.493Z,1001.94
2018-12-20T11:04:26.474Z,1001.93
2018-12-20T11:05:26.450Z,1001.88
2018-12-20T11:06:26.481Z,1001.89
2018-12-20T11:07:26.443Z,1001.91
2018-12-20T11:08:26.809Z,1001.91
2018-12-20T11:09:26.439Z,1001.85
2018-12-20T11:10:26.393Z,1001.87
2018-12-20T11:11:26.435Z,1001.83
2018-12-20T11:12:26.381Z,1001.90
2018-12-20T11:13:26.378Z,1001.81
2018-12-20T11:14:26.347Z,1001.82
2018-12-20T11:15:26.706Z,1001.75
2018-12-20T11:16:26.369Z,1001.73
2018-12-20T11:17:26.354Z,1001.72
2018-12-20T11:18:26.348Z,1001.72
2018-12-20T11:19:26.341Z,1001.71
2018-12-20T11:20:26.593Z,1001.79
2018-12-20T11:21:26.365Z,1001.74
2018-12-20T11:22:26.308Z,1001.72
2018-12-20T11:23:26.296Z,1001.77
2018-12-20T11:24:26.289Z,1001.75
2018-12-20T11:25:26.299Z,1001.75
2018-12-20T11:26:26.320Z,1001.72
2018-12-20T11:27:26.581Z,1001.75
2018-12-20T11:28:26.206Z,1001.78
2018-12-20T11:29:26.246Z,1001.79
2018-12-20T11:30:26.209Z,1001.73
2018-12-20T11:31:26.218Z,1001.76
2018-12-20T11:32:26.161Z,1001.76
2018-12-20T11:33:26.167Z,1001.79
2018-12-20T11:34:26.154Z,1001.77
2018-12-20T11:35:27.124Z,1001.75
2018-12-20T11:36:26.195Z,1001.78
2018-12-20T11:37:26.115Z,1001.77
2018-12-20T11:38:26.338Z,1001.77
2018-12-20T11:39:26.104Z,1001.70
2018-12-20T11:40:26.143Z,1001.73
2018-12-20T11:41:26.112Z,1001.74
2018-12-20T11:42:26.320Z,1001.74
2018-12-20T11:43:26.050Z,1001.79
2018-12-20T11:44:26.587Z,1001.77
2018-12-20T11:45:26.023Z,1001.75
2018-12-20T11:46:26.047Z,1001.73
2018-12-20T11:47:26.009Z,1001.70
2018-12-20T11:48:25.984Z,1001.72
2018-12-20T11:49:25.976Z,1001.75
2018-12-20T11:50:25.981Z,1001.73
2018-12-20T11:51:26.200Z,1001.70
2018-12-20T11:52:27.003Z,1001.73
2018-12-20T11:53:26.032Z,1001.67
2018-12-20T11:54:25.926Z,1001.67
2018-12-20T11:55:25.988Z,1001.71
2018-12-20T11:56:25.949Z,1001.72
2018-12-20T11:57:25.899Z,1001.74
2018-12-20T11:58:25.928Z,1001.70
2018-12-20T11:59:26.118Z,1001.69
2018-12-20T12:00:25.862Z,1001.73
2018-12-20T12:01:25.875Z,1001.76
2018-12-20T12:02:25.866Z,1001.73
2018-12-20T12:03:26.079Z,1001.68
2018-12-20T12:04:25.820Z,1001.74
2018-12-20T12:05:26.066Z,1001.74